sensor_id;sensor_type;location;lat;lon;timestamp;temperature;humidity
47350;DHT22;33088;51.982;5.872;2023-02-28T00:00:33;1.40;99.90
47350;DHT22;33088;51.982;5.872;2023-02-28T00:02:59;1.50;99.90
47350;DHT22;33088;51.982;5.872;2023-02-28T00:05:27;1.60;99.90
47350;DHT22;33088;51.982;5.872;2023-02-28T00:07:53;1.70;99.90
47350;DHT22;33088;51.982;5.872;2023-02-28T00:10:26;1.70;99.90
47350;DHT22;33088;51.982;5.872;2023-02-28T00:12:53;1.70;99.90
47350;DHT22;33088;51.982;5.872;2023-02-28T00:15:20;1.80;99.90
47350;DHT22;33088;51.982;5.872;2023-02-28T00:17:45;1.80;99.90
47350;DHT22;33088;51.982;5.872;2023-02-28T00:20:12;1.70;99.90
47350;DHT22;33088;51.982;5.872;2023-02-28T00:22:40;1.80;99.90
47350;DHT22;33088;51.982;5.872;2023-02-28T00:25:07;1.90;99.90
47350;DHT22;33088;51.982;5.872;2023-02-28T00:27:37;1.90;99.90
47350;DHT22;33088;51.982;5.872;2023-02-28T00:30:05;2.00;99.90
47350;DHT22;33088;51.982;5.872;2023-02-28T00:32:31;2.00;99.90
47350;DHT22;33088;51.982;5.872;2023-02-28T00:34:57;2.00;99.90
47350;DHT22;33088;51.982;5.872;2023-02-28T00:37:23;2.00;99.90
47350;DHT22;33088;51.982;5.872;2023-02-28T00:39:48;2.00;99.90
47350;DHT22;33088;51.982;5.872;2023-02-28T00:42:15;2.10;99.90
47350;DHT22;33088;51.982;5.872;2023-02-28T00:44:41;2.00;99.90
47350;DHT22;33088;51.982;5.872;2023-02-28T00:47:06;2.00;99.90
47350;DHT22;33088;51.982;5.872;2023-02-28T00:49:32;2.00;99.90
47350;DHT22;33088;51.982;5.872;2023-02-28T00:51:58;2.00;99.90
47350;DHT22;33088;51.982;5.872;2023-02-28T00:54:25;2.10;99.90
47350;DHT22;33088;51.982;5.872;2023-02-28T00:56:51;2.10;99.90
47350;DHT22;33088;51.982;5.872;2023-02-28T00:59:17;2.20;99.90
47350;DHT22;33088;51.982;5.872;2023-02-28T01:01:45;2.10;99.90
47350;DHT22;33088;51.982;5.872;2023-02-28T01:04:11;2.20;99.90
47350;DHT22;33088;51.982;5.872;2023-02-28T01:06:37;2.20;99.90
47350;DHT22;33088;51.982;5.872;2023-02-28T01:09:05;2.20;99.90
47350;DHT22;33088;51.982;5.872;2023-02-28T01:11:32;2.20;99.90
47350;DHT22;33088;51.982;5.872;2023-02-28T01:13:58;2.20;99.90
47350;DHT22;33088;51.982;5.872;2023-02-28T01:16:24;2.20;99.90
47350;DHT22;33088;51.982;5.872;2023-02-28T01:18:50;2.20;99.90
47350;DHT22;33088;51.982;5.872;2023-02-28T01:21:18;2.20;99.90
47350;DHT22;33088;51.982;5.872;2023-02-28T01:23:44;2.20;99.90
47350;DHT22;33088;51.982;5.872;2023-02-28T01:26:13;2.10;99.90
47350;DHT22;33088;51.982;5.872;2023-02-28T01:28:39;2.10;99.90
47350;DHT22;33088;51.982;5.872;2023-02-28T01:31:05;2.00;99.90
47350;DHT22;33088;51.982;5.872;2023-02-28T01:33:31;2.00;99.90
47350;DHT22;33088;51.982;5.872;2023-02-28T01:36:00;2.00;99.90
47350;DHT22;33088;51.982;5.872;2023-02-28T01:38:26;1.90;99.90
47350;DHT22;33088;51.982;5.872;2023-02-28T01:40:53;1.90;99.90
47350;DHT22;33088;51.982;5.872;2023-02-28T01:43:23;2.00;99.90
47350;DHT22;33088;51.982;5.872;2023-02-28T01:45:50;2.00;99.90
47350;DHT22;33088;51.982;5.872;2023-02-28T01:48:16;2.00;99.90
47350;DHT22;33088;51.982;5.872;2023-02-28T01:50:45;1.90;99.90
47350;DHT22;33088;51.982;5.872;2023-02-28T01:53:16;1.90;99.90
47350;DHT22;33088;51.982;5.872;2023-02-28T01:55:46;2.00;99.90
47350;DHT22;33088;51.982;5.872;2023-02-28T01:58:13;2.00;99.90
47350;DHT22;33088;51.982;5.872;2023-02-28T02:00:39;2.00;99.90
47350;DHT22;33088;51.982;5.872;2023-02-28T02:03:12;2.00;99.90
47350;DHT22;33088;51.982;5.872;2023-02-28T02:05:40;2.00;99.90
47350;DHT22;33088;51.982;5.872;2023-02-28T02:08:09;2.00;99.90
47350;DHT22;33088;51.982;5.872;2023-02-28T02:10:43;2.00;99.90
47350;DHT22;33088;51.982;5.872;2023-02-28T02:13:16;2.10;99.90
47350;DHT22;33088;51.982;5.872;2023-02-28T02:18:43;2.00;99.90
47350;DHT22;33088;51.982;5.872;2023-02-28T02:35:30;2.10;99.90
47350;DHT22;33088;51.982;5.872;2023-02-28T02:38:08;2.10;99.90
47350;DHT22;33088;51.982;5.872;2023-02-28T02:40:46;2.10;99.90
47350;DHT22;33088;51.982;5.872;2023-02-28T02:43:22;2.10;99.90
47350;DHT22;33088;51.982;5.872;2023-02-28T02:46:01;2.10;99.90
47350;DHT22;33088;51.982;5.872;2023-02-28T02:48:32;2.20;99.90
47350;DHT22;33088;51.982;5.872;2023-02-28T02:51:01;2.10;99.90
47350;DHT22;33088;51.982;5.872;2023-02-28T02:53:40;2.10;99.90
47350;DHT22;33088;51.982;5.872;2023-02-28T02:56:07;2.20;99.90
47350;DHT22;33088;51.982;5.872;2023-02-28T02:58:38;2.30;99.90
47350;DHT22;33088;51.982;5.872;2023-02-28T03:01:08;2.20;99.90
47350;DHT22;33088;51.982;5.872;2023-02-28T03:03:35;2.30;99.90
47350;DHT22;33088;51.982;5.872;2023-02-28T03:06:02;2.20;99.90
47350;DHT22;33088;51.982;5.872;2023-02-28T03:08:30;2.30;99.90
47350;DHT22;33088;51.982;5.872;2023-02-28T03:11:10;2.30;99.90
47350;DHT22;33088;51.982;5.872;2023-02-28T03:16:47;2.30;99.90
47350;DHT22;33088;51.982;5.872;2023-02-28T03:30:29;2.30;99.90
47350;DHT22;33088;51.982;5.872;2023-02-28T03:33:09;2.30;99.90
47350;DHT22;33088;51.982;5.872;2023-02-28T03:35:41;2.30;99.90
47350;DHT22;33088;51.982;5.872;2023-02-28T03:38:14;2.30;99.90
47350;DHT22;33088;51.982;5.872;2023-02-28T03:40:45;2.20;99.90
47350;DHT22;33088;51.982;5.872;2023-02-28T03:43:17;2.20;99.90
47350;DHT22;33088;51.982;5.872;2023-02-28T03:45:44;2.20;99.90
47350;DHT22;33088;51.982;5.872;2023-02-28T03:48:15;2.30;99.90
47350;DHT22;33088;51.982;5.872;2023-02-28T03:50:45;2.20;99.90
47350;DHT22;33088;51.982;5.872;2023-02-28T03:59:04;2.20;99.90
47350;DHT22;33088;51.982;5.872;2023-02-28T04:01:37;2.20;99.90
47350;DHT22;33088;51.982;5.872;2023-02-28T04:04:04;2.20;99.90
47350;DHT22;33088;51.982;5.872;2023-02-28T04:06:32;2.10;99.90
47350;DHT22;33088;51.982;5.872;2023-02-28T04:08:58;2.10;99.90
47350;DHT22;33088;51.982;5.872;2023-02-28T04:11:32;2.20;99.90
47350;DHT22;33088;51.982;5.872;2023-02-28T04:14:00;2.20;99.90
47350;DHT22;33088;51.982;5.872;2023-02-28T04:16:26;2.20;99.90
47350;DHT22;33088;51.982;5.872;2023-02-28T04:18:52;2.20;99.90
47350;DHT22;33088;51.982;5.872;2023-02-28T04:21:18;2.20;99.90
47350;DHT22;33088;51.982;5.872;2023-02-28T04:23:47;2.20;99.90
47350;DHT22;33088;51.982;5.872;2023-02-28T04:26:13;2.10;99.90
47350;DHT22;33088;51.982;5.872;2023-02-28T04:28:38;2.10;99.90
47350;DHT22;33088;51.982;5.872;2023-02-28T04:31:05;2.10;99.90
47350;DHT22;33088;51.982;5.872;2023-02-28T04:33:32;2.10;99.90
47350;DHT22;33088;51.982;5.872;2023-02-28T04:36:02;2.00;99.90
47350;DHT22;33088;51.982;5.872;2023-02-28T04:38:33;2.00;99.90
47350;DHT22;33088;51.982;5.872;2023-02-28T04:40:59;1.90;99.90
47350;DHT22;33088;51.982;5.872;2023-02-28T04:43:29;1.90;99.90
47350;DHT22;33088;51.982;5.872;2023-02-28T04:45:56;1.80;99.90
47350;DHT22;33088;51.982;5.872;2023-02-28T04:48:27;1.80;99.90
47350;DHT22;33088;51.982;5.872;2023-02-28T04:50:53;1.70;99.90
47350;DHT22;33088;51.982;5.872;2023-02-28T04:53:19;1.70;99.90
47350;DHT22;33088;51.982;5.872;2023-02-28T04:55:45;1.70;99.90
47350;DHT22;33088;51.982;5.872;2023-02-28T04:58:12;1.60;99.90
47350;DHT22;33088;51.982;5.872;2023-02-28T05:00:37;1.70;99.90
47350;DHT22;33088;51.982;5.872;2023-02-28T05:03:03;1.50;99.90
47350;DHT22;33088;51.982;5.872;2023-02-28T05:05:29;1.50;99.90
47350;DHT22;33088;51.982;5.872;2023-02-28T05:07:55;1.50;99.90
47350;DHT22;33088;51.982;5.872;2023-02-28T05:10:24;1.40;99.90
47350;DHT22;33088;51.982;5.872;2023-02-28T05:12:49;1.40;99.90
47350;DHT22;33088;51.982;5.872;2023-02-28T05:15:16;1.50;99.90
47350;DHT22;33088;51.982;5.872;2023-02-28T05:17:42;1.40;99.90
47350;DHT22;33088;51.982;5.872;2023-02-28T05:20:09;1.40;99.90
47350;DHT22;33088;51.982;5.872;2023-02-28T05:22:37;1.40;99.90
47350;DHT22;33088;51.982;5.872;2023-02-28T05:25:03;1.40;99.90
47350;DHT22;33088;51.982;5.872;2023-02-28T05:27:30;1.40;99.90
47350;DHT22;33088;51.982;5.872;2023-02-28T05:29:56;1.40;99.90
47350;DHT22;33088;51.982;5.872;2023-02-28T05:32:22;1.40;99.90
47350;DHT22;33088;51.982;5.872;2023-02-28T05:34:47;1.40;99.90
47350;DHT22;33088;51.982;5.872;2023-02-28T05:37:14;1.40;99.90
47350;DHT22;33088;51.982;5.872;2023-02-28T05:39:41;1.30;99.90
47350;DHT22;33088;51.982;5.872;2023-02-28T05:42:07;1.40;99.90
47350;DHT22;33088;51.982;5.872;2023-02-28T05:44:34;1.40;99.90
47350;DHT22;33088;51.982;5.872;2023-02-28T05:47:00;1.40;99.90
47350;DHT22;33088;51.982;5.872;2023-02-28T05:49:26;1.40;99.90
47350;DHT22;33088;51.982;5.872;2023-02-28T05:51:51;1.40;99.90
47350;DHT22;33088;51.982;5.872;2023-02-28T05:54:17;1.40;99.90
47350;DHT22;33088;51.982;5.872;2023-02-28T05:56:42;1.30;99.90
47350;DHT22;33088;51.982;5.872;2023-02-28T05:59:11;1.30;99.90
47350;DHT22;33088;51.982;5.872;2023-02-28T06:01:40;1.30;99.90
47350;DHT22;33088;51.982;5.872;2023-02-28T06:04:08;1.40;99.90
47350;DHT22;33088;51.982;5.872;2023-02-28T06:06:34;1.40;99.90
47350;DHT22;33088;51.982;5.872;2023-02-28T06:09:05;1.40;99.90
47350;DHT22;33088;51.982;5.872;2023-02-28T06:11:31;1.40;99.90
47350;DHT22;33088;51.982;5.872;2023-02-28T06:13:58;1.50;99.90
47350;DHT22;33088;51.982;5.872;2023-02-28T06:16:26;1.50;99.90
47350;DHT22;33088;51.982;5.872;2023-02-28T06:18:52;1.50;99.90
47350;DHT22;33088;51.982;5.872;2023-02-28T06:21:18;1.60;99.90
47350;DHT22;33088;51.982;5.872;2023-02-28T06:23:44;1.60;99.90
47350;DHT22;33088;51.982;5.872;2023-02-28T06:26:10;1.50;99.90
47350;DHT22;33088;51.982;5.872;2023-02-28T06:28:36;1.50;99.90
47350;DHT22;33088;51.982;5.872;2023-02-28T06:31:10;1.60;99.90
47350;DHT22;33088;51.982;5.872;2023-02-28T06:33:37;1.50;99.90
47350;DHT22;33088;51.982;5.872;2023-02-28T06:36:04;1.60;99.90
47350;DHT22;33088;51.982;5.872;2023-02-28T06:38:31;1.70;99.90
47350;DHT22;33088;51.982;5.872;2023-02-28T06:40:58;1.80;99.90
47350;DHT22;33088;51.982;5.872;2023-02-28T06:43:25;1.90;99.90
47350;DHT22;33088;51.982;5.872;2023-02-28T06:45:57;2.00;99.90
47350;DHT22;33088;51.982;5.872;2023-02-28T06:48:24;2.00;99.90
47350;DHT22;33088;51.982;5.872;2023-02-28T06:50:49;2.10;99.90
47350;DHT22;33088;51.982;5.872;2023-02-28T06:53:15;2.20;99.90
47350;DHT22;33088;51.982;5.872;2023-02-28T06:55:41;2.30;99.90
47350;DHT22;33088;51.982;5.872;2023-02-28T06:58:07;2.10;99.90
47350;DHT22;33088;51.982;5.872;2023-02-28T07:00:40;2.20;99.90
47350;DHT22;33088;51.982;5.872;2023-02-28T07:03:06;2.30;99.90
47350;DHT22;33088;51.982;5.872;2023-02-28T07:05:34;2.30;99.90
47350;DHT22;33088;51.982;5.872;2023-02-28T07:08:00;2.40;99.90
47350;DHT22;33088;51.982;5.872;2023-02-28T07:10:26;2.30;99.90
47350;DHT22;33088;51.982;5.872;2023-02-28T07:12:51;2.40;99.90
47350;DHT22;33088;51.982;5.872;2023-02-28T07:15:17;2.40;99.90
47350;DHT22;33088;51.982;5.872;2023-02-28T07:17:43;2.40;99.90
47350;DHT22;33088;51.982;5.872;2023-02-28T07:20:09;2.40;99.90
47350;DHT22;33088;51.982;5.872;2023-02-28T07:22:35;2.40;99.90
47350;DHT22;33088;51.982;5.872;2023-02-28T07:25:00;2.40;99.90
47350;DHT22;33088;51.982;5.872;2023-02-28T07:27:26;2.50;99.90
47350;DHT22;33088;51.982;5.872;2023-02-28T07:29:53;2.60;99.90
47350;DHT22;33088;51.982;5.872;2023-02-28T07:32:19;2.60;99.90
47350;DHT22;33088;51.982;5.872;2023-02-28T07:34:45;2.50;99.90
47350;DHT22;33088;51.982;5.872;2023-02-28T07:37:11;2.60;99.90
47350;DHT22;33088;51.982;5.872;2023-02-28T07:39:36;2.60;99.90
47350;DHT22;33088;51.982;5.872;2023-02-28T07:42:06;2.50;99.90
47350;DHT22;33088;51.982;5.872;2023-02-28T07:44:34;2.50;99.90
47350;DHT22;33088;51.982;5.872;2023-02-28T07:47:00;2.50;99.90
47350;DHT22;33088;51.982;5.872;2023-02-28T07:49:26;2.60;99.90
47350;DHT22;33088;51.982;5.872;2023-02-28T07:51:52;2.70;99.90
47350;DHT22;33088;51.982;5.872;2023-02-28T07:54:17;2.60;99.90
47350;DHT22;33088;51.982;5.872;2023-02-28T07:56:43;2.70;99.90
47350;DHT22;33088;51.982;5.872;2023-02-28T07:59:08;2.60;99.90
47350;DHT22;33088;51.982;5.872;2023-02-28T08:01:34;2.60;99.90
47350;DHT22;33088;51.982;5.872;2023-02-28T08:04:00;2.60;99.90
47350;DHT22;33088;51.982;5.872;2023-02-28T08:06:26;2.70;99.90
47350;DHT22;33088;51.982;5.872;2023-02-28T08:08:53;2.60;99.90
47350;DHT22;33088;51.982;5.872;2023-02-28T08:11:18;2.60;99.90
47350;DHT22;33088;51.982;5.872;2023-02-28T08:13:45;2.60;99.90
47350;DHT22;33088;51.982;5.872;2023-02-28T08:16:12;2.50;99.90
47350;DHT22;33088;51.982;5.872;2023-02-28T08:18:39;2.50;99.90
47350;DHT22;33088;51.982;5.872;2023-02-28T08:21:09;2.60;99.90
47350;DHT22;33088;51.982;5.872;2023-02-28T08:23:35;2.70;99.90
47350;DHT22;33088;51.982;5.872;2023-02-28T08:26:02;2.80;99.90
47350;DHT22;33088;51.982;5.872;2023-02-28T08:28:28;2.80;99.90
47350;DHT22;33088;51.982;5.872;2023-02-28T08:30:54;2.80;99.90
47350;DHT22;33088;51.982;5.872;2023-02-28T08:33:20;2.80;99.90
47350;DHT22;33088;51.982;5.872;2023-02-28T08:35:46;2.80;99.90
47350;DHT22;33088;51.982;5.872;2023-02-28T08:38:11;2.90;99.90
47350;DHT22;33088;51.982;5.872;2023-02-28T08:40:37;2.90;99.90
47350;DHT22;33088;51.982;5.872;2023-02-28T08:43:03;2.80;99.90
47350;DHT22;33088;51.982;5.872;2023-02-28T08:45:29;2.90;99.90
47350;DHT22;33088;51.982;5.872;2023-02-28T08:47:55;2.90;99.90
47350;DHT22;33088;51.982;5.872;2023-02-28T08:50:21;2.90;99.90
47350;DHT22;33088;51.982;5.872;2023-02-28T08:52:47;2.90;99.90
47350;DHT22;33088;51.982;5.872;2023-02-28T08:55:12;2.80;99.90
47350;DHT22;33088;51.982;5.872;2023-02-28T08:57:38;2.90;99.90
47350;DHT22;33088;51.982;5.872;2023-02-28T09:00:04;3.20;99.90
47350;DHT22;33088;51.982;5.872;2023-02-28T09:02:31;3.00;99.90
47350;DHT22;33088;51.982;5.872;2023-02-28T09:04:57;3.00;99.90
47350;DHT22;33088;51.982;5.872;2023-02-28T09:07:24;3.00;99.90
47350;DHT22;33088;51.982;5.872;2023-02-28T09:09:49;3.00;99.90
47350;DHT22;33088;51.982;5.872;2023-02-28T09:12:23;3.10;99.90
47350;DHT22;33088;51.982;5.872;2023-02-28T09:14:49;3.10;99.90
47350;DHT22;33088;51.982;5.872;2023-02-28T09:17:15;3.20;99.60
47350;DHT22;33088;51.982;5.872;2023-02-28T09:19:41;3.20;99.90
47350;DHT22;33088;51.982;5.872;2023-02-28T09:22:06;3.20;99.90
47350;DHT22;33088;51.982;5.872;2023-02-28T09:24:32;3.20;99.90
47350;DHT22;33088;51.982;5.872;2023-02-28T09:26:58;3.30;99.90
47350;DHT22;33088;51.982;5.872;2023-02-28T09:29:23;3.30;99.80
47350;DHT22;33088;51.982;5.872;2023-02-28T09:31:49;3.30;99.90
47350;DHT22;33088;51.982;5.872;2023-02-28T09:34:15;3.50;99.60
47350;DHT22;33088;51.982;5.872;2023-02-28T09:36:43;3.40;99.50
47350;DHT22;33088;51.982;5.872;2023-02-28T09:39:08;3.50;99.20
47350;DHT22;33088;51.982;5.872;2023-02-28T09:41:41;3.50;99.90
47350;DHT22;33088;51.982;5.872;2023-02-28T09:44:35;3.50;99.40
47350;DHT22;33088;51.982;5.872;2023-02-28T09:49:52;3.40;98.60
47350;DHT22;33088;51.982;5.872;2023-02-28T09:52:29;3.40;98.20
47350;DHT22;33088;51.982;5.872;2023-02-28T09:57:51;3.50;99.60
47350;DHT22;33088;51.982;5.872;2023-02-28T10:00:18;3.60;99.20
47350;DHT22;33088;51.982;5.872;2023-02-28T10:08:40;3.80;98.80
47350;DHT22;33088;51.982;5.872;2023-02-28T10:11:14;3.80;98.40
47350;DHT22;33088;51.982;5.872;2023-02-28T10:14:00;3.70;99.30
47350;DHT22;33088;51.982;5.872;2023-02-28T10:22:10;3.90;98.40
47350;DHT22;33088;51.982;5.872;2023-02-28T10:24:43;4.00;98.00
47350;DHT22;33088;51.982;5.872;2023-02-28T10:27:15;4.00;99.10
47350;DHT22;33088;51.982;5.872;2023-02-28T10:29:46;4.10;98.10
47350;DHT22;33088;51.982;5.872;2023-02-28T10:32:16;4.10;98.20
47350;DHT22;33088;51.982;5.872;2023-02-28T10:34:43;4.10;98.20
47350;DHT22;33088;51.982;5.872;2023-02-28T10:37:11;4.20;97.80
47350;DHT22;33088;51.982;5.872;2023-02-28T10:39:43;4.20;97.90
47350;DHT22;33088;51.982;5.872;2023-02-28T10:42:27;4.30;97.40
47350;DHT22;33088;51.982;5.872;2023-02-28T10:45:13;4.20;98.30
47350;DHT22;33088;51.982;5.872;2023-02-28T10:48:06;4.20;98.80
47350;DHT22;33088;51.982;5.872;2023-02-28T11:01:45;4.50;99.10
47350;DHT22;33088;51.982;5.872;2023-02-28T11:06:42;4.70;98.20
47350;DHT22;33088;51.982;5.872;2023-02-28T11:09:37;4.70;98.30
47350;DHT22;33088;51.982;5.872;2023-02-28T11:12:07;4.70;98.00
47350;DHT22;33088;51.982;5.872;2023-02-28T11:14:46;4.70;98.20
47350;DHT22;33088;51.982;5.872;2023-02-28T11:17:18;4.60;98.50
47350;DHT22;33088;51.982;5.872;2023-02-28T11:19:47;4.70;99.20
47350;DHT22;33088;51.982;5.872;2023-02-28T11:22:19;4.90;99.30
47350;DHT22;33088;51.982;5.872;2023-02-28T11:24:49;5.00;98.50
47350;DHT22;33088;51.982;5.872;2023-02-28T11:27:50;5.10;99.10
47350;DHT22;33088;51.982;5.872;2023-02-28T11:30:37;5.10;97.30
47350;DHT22;33088;51.982;5.872;2023-02-28T11:35:50;4.70;97.90
47350;DHT22;33088;51.982;5.872;2023-02-28T11:38:16;4.80;98.20
47350;DHT22;33088;51.982;5.872;2023-02-28T11:41:00;5.00;98.30
47350;DHT22;33088;51.982;5.872;2023-02-28T11:46:54;5.20;98.20
47350;DHT22;33088;51.982;5.872;2023-02-28T12:00:40;5.70;96.90
47350;DHT22;33088;51.982;5.872;2023-02-28T12:13:48;5.60;97.20
47350;DHT22;33088;51.982;5.872;2023-02-28T12:22:05;5.70;96.70
47350;DHT22;33088;51.982;5.872;2023-02-28T12:27:19;5.60;96.60
47350;DHT22;33088;51.982;5.872;2023-02-28T12:30:33;5.60;96.00
47350;DHT22;33088;51.982;5.872;2023-02-28T12:33:04;5.40;96.10
47350;DHT22;33088;51.982;5.872;2023-02-28T12:35:38;5.40;96.50
47350;DHT22;33088;51.982;5.872;2023-02-28T12:38:26;5.50;96.10
47350;DHT22;33088;51.982;5.872;2023-02-28T12:43:37;5.60;97.00
47350;DHT22;33088;51.982;5.872;2023-02-28T12:46:17;5.80;96.10
47350;DHT22;33088;51.982;5.872;2023-02-28T12:48:51;5.80;96.50
47350;DHT22;33088;51.982;5.872;2023-02-28T12:51:18;5.80;96.10
47350;DHT22;33088;51.982;5.872;2023-02-28T12:54:16;5.80;96.10
47350;DHT22;33088;51.982;5.872;2023-02-28T12:56:52;5.80;96.50
47350;DHT22;33088;51.982;5.872;2023-02-28T12:59:45;5.90;96.10
47350;DHT22;33088;51.982;5.872;2023-02-28T13:05:24;6.00;95.70
47350;DHT22;33088;51.982;5.872;2023-02-28T13:10:47;5.90;96.10
47350;DHT22;33088;51.982;5.872;2023-02-28T13:13:22;6.10;96.60
47350;DHT22;33088;51.982;5.872;2023-02-28T13:16:03;6.30;96.20
47350;DHT22;33088;51.982;5.872;2023-02-28T13:18:42;6.20;95.70
47350;DHT22;33088;51.982;5.872;2023-02-28T13:21:21;6.10;95.70
47350;DHT22;33088;51.982;5.872;2023-02-28T13:34:30;6.00;94.80
47350;DHT22;33088;51.982;5.872;2023-02-28T13:45:19;6.10;96.30
47350;DHT22;33088;51.982;5.872;2023-02-28T13:47:56;6.20;95.80
47350;DHT22;33088;51.982;5.872;2023-02-28T13:50:28;6.10;94.80
47350;DHT22;33088;51.982;5.872;2023-02-28T13:55:52;6.20;95.90
47350;DHT22;33088;51.982;5.872;2023-02-28T14:07:03;6.00;95.40
47350;DHT22;33088;51.982;5.872;2023-02-28T14:09:39;6.00;96.40
47350;DHT22;33088;51.982;5.872;2023-02-28T14:17:55;6.10;95.80
47350;DHT22;33088;51.982;5.872;2023-02-28T14:20:26;6.00;96.10
47350;DHT22;33088;51.982;5.872;2023-02-28T14:23:03;6.00;95.50
47350;DHT22;33088;51.982;5.872;2023-02-28T14:30:57;6.00;95.20
47350;DHT22;33088;51.982;5.872;2023-02-28T14:36:23;6.10;96.90
47350;DHT22;33088;51.982;5.872;2023-02-28T14:38:56;6.10;96.60
47350;DHT22;33088;51.982;5.872;2023-02-28T14:41:32;6.20;96.40
47350;DHT22;33088;51.982;5.872;2023-02-28T14:44:02;6.20;96.00
47350;DHT22;33088;51.982;5.872;2023-02-28T14:46:39;6.20;96.20
47350;DHT22;33088;51.982;5.872;2023-02-28T14:49:06;6.20;96.20
47350;DHT22;33088;51.982;5.872;2023-02-28T14:51:35;6.20;96.90
47350;DHT22;33088;51.982;5.872;2023-02-28T14:54:02;6.10;96.60
47350;DHT22;33088;51.982;5.872;2023-02-28T14:56:37;6.10;95.70
47350;DHT22;33088;51.982;5.872;2023-02-28T14:59:04;6.10;95.50
47350;DHT22;33088;51.982;5.872;2023-02-28T15:01:30;6.00;95.80
47350;DHT22;33088;51.982;5.872;2023-02-28T15:04:05;6.00;95.50
47350;DHT22;33088;51.982;5.872;2023-02-28T15:06:32;6.00;96.50
47350;DHT22;33088;51.982;5.872;2023-02-28T15:09:07;6.10;97.00
47350;DHT22;33088;51.982;5.872;2023-02-28T15:11:34;6.00;96.30
47350;DHT22;33088;51.982;5.872;2023-02-28T15:14:00;6.00;96.00
47350;DHT22;33088;51.982;5.872;2023-02-28T15:16:46;6.00;96.60
47350;DHT22;33088;51.982;5.872;2023-02-28T15:19:22;6.00;96.60
47350;DHT22;33088;51.982;5.872;2023-02-28T15:21:58;6.00;96.50
47350;DHT22;33088;51.982;5.872;2023-02-28T15:24:46;5.90;96.80
47350;DHT22;33088;51.982;5.872;2023-02-28T15:27:22;5.90;97.10
47350;DHT22;33088;51.982;5.872;2023-02-28T15:29:54;5.90;96.00
47350;DHT22;33088;51.982;5.872;2023-02-28T15:32:32;5.90;96.50
47350;DHT22;33088;51.982;5.872;2023-02-28T15:35:16;5.90;96.60
47350;DHT22;33088;51.982;5.872;2023-02-28T15:37:46;5.90;95.10
47350;DHT22;33088;51.982;5.872;2023-02-28T15:40:33;5.80;95.20
47350;DHT22;33088;51.982;5.872;2023-02-28T15:43:15;5.80;95.60
47350;DHT22;33088;51.982;5.872;2023-02-28T15:45:45;5.70;96.50
47350;DHT22;33088;51.982;5.872;2023-02-28T15:50:43;5.80;96.50
47350;DHT22;33088;51.982;5.872;2023-02-28T15:53:18;5.80;96.10
47350;DHT22;33088;51.982;5.872;2023-02-28T15:55:45;5.70;95.60
47350;DHT22;33088;51.982;5.872;2023-02-28T15:58:12;5.70;96.40
47350;DHT22;33088;51.982;5.872;2023-02-28T16:00:38;5.60;96.30
47350;DHT22;33088;51.982;5.872;2023-02-28T16:03:27;5.60;96.60
47350;DHT22;33088;51.982;5.872;2023-02-28T16:06:33;5.50;96.40
47350;DHT22;33088;51.982;5.872;2023-02-28T16:08:59;5.50;96.60
47350;DHT22;33088;51.982;5.872;2023-02-28T16:11:25;5.50;96.60
47350;DHT22;33088;51.982;5.872;2023-02-28T16:13:51;5.50;96.90
47350;DHT22;33088;51.982;5.872;2023-02-28T16:16:19;5.50;96.80
47350;DHT22;33088;51.982;5.872;2023-02-28T16:18:45;5.40;97.10
47350;DHT22;33088;51.982;5.872;2023-02-28T16:21:11;5.40;96.80
47350;DHT22;33088;51.982;5.872;2023-02-28T16:23:37;5.40;97.00
47350;DHT22;33088;51.982;5.872;2023-02-28T16:26:04;5.50;96.70
47350;DHT22;33088;51.982;5.872;2023-02-28T16:28:37;5.40;96.50
47350;DHT22;33088;51.982;5.872;2023-02-28T16:31:05;5.30;96.90
47350;DHT22;33088;51.982;5.872;2023-02-28T16:33:34;5.30;97.30
47350;DHT22;33088;51.982;5.872;2023-02-28T16:36:02;5.40;97.20
47350;DHT22;33088;51.982;5.872;2023-02-28T16:38:28;5.20;97.20
47350;DHT22;33088;51.982;5.872;2023-02-28T16:40:56;5.20;97.00
47350;DHT22;33088;51.982;5.872;2023-02-28T16:43:25;5.30;97.10
47350;DHT22;33088;51.982;5.872;2023-02-28T16:45:56;5.10;97.30
47350;DHT22;33088;51.982;5.872;2023-02-28T16:48:23;5.10;97.50
47350;DHT22;33088;51.982;5.872;2023-02-28T16:50:50;5.00;97.70
47350;DHT22;33088;51.982;5.872;2023-02-28T16:53:16;5.10;97.60
47350;DHT22;33088;51.982;5.872;2023-02-28T16:55:42;4.90;98.00
47350;DHT22;33088;51.982;5.872;2023-02-28T16:58:13;4.90;97.80
47350;DHT22;33088;51.982;5.872;2023-02-28T17:00:39;4.90;98.30
47350;DHT22;33088;51.982;5.872;2023-02-28T17:03:07;4.80;98.50
47350;DHT22;33088;51.982;5.872;2023-02-28T17:05:37;4.80;97.90
47350;DHT22;33088;51.982;5.872;2023-02-28T17:08:03;4.80;98.20
47350;DHT22;33088;51.982;5.872;2023-02-28T17:10:29;4.70;98.30
47350;DHT22;33088;51.982;5.872;2023-02-28T17:12:55;4.70;97.80
47350;DHT22;33088;51.982;5.872;2023-02-28T17:15:20;4.70;98.00
47350;DHT22;33088;51.982;5.872;2023-02-28T17:17:47;4.70;98.20
47350;DHT22;33088;51.982;5.872;2023-02-28T17:20:22;4.50;98.50
47350;DHT22;33088;51.982;5.872;2023-02-28T17:22:49;4.40;98.60
47350;DHT22;33088;51.982;5.872;2023-02-28T17:25:14;4.30;99.10
47350;DHT22;33088;51.982;5.872;2023-02-28T17:27:40;4.20;99.00
47350;DHT22;33088;51.982;5.872;2023-02-28T17:30:26;4.20;99.00
47350;DHT22;33088;51.982;5.872;2023-02-28T17:32:53;4.10;98.90
47350;DHT22;33088;51.982;5.872;2023-02-28T17:35:19;4.10;99.10
47350;DHT22;33088;51.982;5.872;2023-02-28T17:37:45;4.00;98.70
47350;DHT22;33088;51.982;5.872;2023-02-28T17:40:16;4.00;99.00
47350;DHT22;33088;51.982;5.872;2023-02-28T17:42:43;4.00;98.70
47350;DHT22;33088;51.982;5.872;2023-02-28T17:45:09;4.10;99.00
47350;DHT22;33088;51.982;5.872;2023-02-28T17:47:35;4.00;99.00
47350;DHT22;33088;51.982;5.872;2023-02-28T17:50:01;3.90;99.00
47350;DHT22;33088;51.982;5.872;2023-02-28T17:52:26;3.90;99.20
47350;DHT22;33088;51.982;5.872;2023-02-28T17:54:53;3.80;99.50
47350;DHT22;33088;51.982;5.872;2023-02-28T17:57:19;3.80;99.50
47350;DHT22;33088;51.982;5.872;2023-02-28T17:59:45;3.70;99.10
47350;DHT22;33088;51.982;5.872;2023-02-28T18:02:12;3.80;99.00
47350;DHT22;33088;51.982;5.872;2023-02-28T18:04:38;3.70;99.00
47350;DHT22;33088;51.982;5.872;2023-02-28T18:07:06;3.70;98.90
47350;DHT22;33088;51.982;5.872;2023-02-28T18:09:32;3.70;99.20
47350;DHT22;33088;51.982;5.872;2023-02-28T18:11:57;3.80;98.90
47350;DHT22;33088;51.982;5.872;2023-02-28T18:14:24;3.70;99.00
47350;DHT22;33088;51.982;5.872;2023-02-28T18:16:52;3.70;98.90
47350;DHT22;33088;51.982;5.872;2023-02-28T18:19:18;3.70;99.30
47350;DHT22;33088;51.982;5.872;2023-02-28T18:21:45;3.60;99.30
47350;DHT22;33088;51.982;5.872;2023-02-28T18:24:12;3.60;99.40
47350;DHT22;33088;51.982;5.872;2023-02-28T18:26:39;3.60;99.40
47350;DHT22;33088;51.982;5.872;2023-02-28T18:29:05;3.60;99.40
47350;DHT22;33088;51.982;5.872;2023-02-28T18:31:31;3.60;99.40
47350;DHT22;33088;51.982;5.872;2023-02-28T18:33:58;3.50;99.80
47350;DHT22;33088;51.982;5.872;2023-02-28T18:36:24;3.40;99.90
47350;DHT22;33088;51.982;5.872;2023-02-28T18:38:50;3.30;99.90